sensor_id;sensor_type;location;lat;lon;timestamp;P1;durP1;ratioP1;P2;durP2;ratioP2
57822;SDS011;43650;48.064;20.624;2023-08-30T00:00:19;9.13;;;5.07;;
57822;SDS011;43650;48.064;20.624;2023-08-30T00:01:23;11.95;;;5.85;;
57822;SDS011;43650;48.064;20.624;2023-08-30T00:02:23;6.83;;;4.63;;
57822;SDS011;43650;48.064;20.624;2023-08-30T00:03:23;5.63;;;4.17;;
57822;SDS011;43650;48.064;20.624;2023-08-30T00:04:24;7.07;;;4.87;;
57822;SDS011;43650;48.064;20.624;2023-08-30T00:05:24;10.43;;;5.43;;
57822;SDS011;43650;48.064;20.624;2023-08-30T00:06:25;7.97;;;5.30;;
57822;SDS011;43650;48.064;20.624;2023-08-30T00:07:26;6.75;;;4.85;;
57822;SDS011;43650;48.064;20.624;2023-08-30T00:08:26;7.87;;;4.75;;
57822;SDS011;43650;48.064;20.624;2023-08-30T00:09:27;8.27;;;4.30;;
57822;SDS011;43650;48.064;20.624;2023-08-30T00:10:27;7.73;;;5.03;;
57822;SDS011;43650;48.064;20.624;2023-08-30T00:11:28;9.03;;;4.97;;
57822;SDS011;43650;48.064;20.624;2023-08-30T00:12:30;8.52;;;4.80;;
57822;SDS011;43650;48.064;20.624;2023-08-30T00:13:32;8.15;;;4.65;;
57822;SDS011;43650;48.064;20.624;2023-08-30T00:14:33;11.45;;;5.15;;
57822;SDS011;43650;48.064;20.624;2023-08-30T00:15:33;8.20;;;5.12;;
57822;SDS011;43650;48.064;20.624;2023-08-30T00:16:34;8.37;;;5.63;;
57822;SDS011;43650;48.064;20.624;2023-08-30T00:17:34;8.67;;;6.27;;
57822;SDS011;43650;48.064;20.624;2023-08-30T00:18:34;8.73;;;5.70;;
57822;SDS011;43650;48.064;20.624;2023-08-30T00:19:35;9.60;;;4.97;;
57822;SDS011;43650;48.064;20.624;2023-08-30T00:20:36;10.45;;;5.62;;
57822;SDS011;43650;48.064;20.624;2023-08-30T00:21:36;6.60;;;5.10;;
57822;SDS011;43650;48.064;20.624;2023-08-30T00:22:37;7.82;;;5.12;;
57822;SDS011;43650;48.064;20.624;2023-08-30T00:23:37;9.10;;;5.53;;
57822;SDS011;43650;48.064;20.624;2023-08-30T00:24:38;9.90;;;5.30;;
57822;SDS011;43650;48.064;20.624;2023-08-30T00:25:38;10.15;;;4.80;;
57822;SDS011;43650;48.064;20.624;2023-08-30T00:26:39;9.30;;;5.37;;
57822;SDS011;43650;48.064;20.624;2023-08-30T00:27:39;10.30;;;6.07;;
57822;SDS011;43650;48.064;20.624;2023-08-30T00:28:40;6.63;;;4.07;;
57822;SDS011;43650;48.064;20.624;2023-08-30T00:29:40;9.00;;;5.60;;
57822;SDS011;43650;48.064;20.624;2023-08-30T00:30:41;8.57;;;5.73;;
57822;SDS011;43650;48.064;20.624;2023-08-30T00:31:41;8.30;;;5.47;;
57822;SDS011;43650;48.064;20.624;2023-08-30T00:32:42;7.80;;;5.30;;
57822;SDS011;43650;48.064;20.624;2023-08-30T00:33:42;6.97;;;4.50;;
57822;SDS011;43650;48.064;20.624;2023-08-30T00:34:42;6.60;;;4.97;;
57822;SDS011;43650;48.064;20.624;2023-08-30T00:35:43;8.87;;;5.37;;
57822;SDS011;43650;48.064;20.624;2023-08-30T00:36:43;6.90;;;4.87;;
57822;SDS011;43650;48.064;20.624;2023-08-30T00:37:44;10.37;;;5.33;;
57822;SDS011;43650;48.064;20.624;2023-08-30T00:38:44;8.57;;;5.63;;
57822;SDS011;43650;48.064;20.624;2023-08-30T00:39:44;9.87;;;5.47;;
57822;SDS011;43650;48.064;20.624;2023-08-30T00:40:45;11.00;;;5.67;;
57822;SDS011;43650;48.064;20.624;2023-08-30T00:41:45;7.83;;;4.70;;
57822;SDS011;43650;48.064;20.624;2023-08-30T00:42:46;9.30;;;4.80;;
57822;SDS011;43650;48.064;20.624;2023-08-30T00:43:46;9.17;;;5.13;;
57822;SDS011;43650;48.064;20.624;2023-08-30T00:44:47;11.23;;;5.17;;
57822;SDS011;43650;48.064;20.624;2023-08-30T00:45:47;7.90;;;5.30;;
57822;SDS011;43650;48.064;20.624;2023-08-30T00:47:49;12.27;;;5.47;;
57822;SDS011;43650;48.064;20.624;2023-08-30T00:48:49;13.43;;;5.70;;
57822;SDS011;43650;48.064;20.624;2023-08-30T00:49:50;9.00;;;4.90;;
57822;SDS011;43650;48.064;20.624;2023-08-30T00:50:50;12.73;;;4.97;;
57822;SDS011;43650;48.064;20.624;2023-08-30T00:51:50;9.83;;;5.07;;
57822;SDS011;43650;48.064;20.624;2023-08-30T00:52:51;8.15;;;5.25;;
57822;SDS011;43650;48.064;20.624;2023-08-30T00:53:53;10.00;;;4.43;;
57822;SDS011;43650;48.064;20.624;2023-08-30T00:54:54;10.85;;;5.12;;
57822;SDS011;43650;48.064;20.624;2023-08-30T00:55:55;8.47;;;5.47;;
57822;SDS011;43650;48.064;20.624;2023-08-30T00:56:55;9.20;;;5.20;;
57822;SDS011;43650;48.064;20.624;2023-08-30T00:58:57;8.93;;;4.90;;
57822;SDS011;43650;48.064;20.624;2023-08-30T00:59:57;7.20;;;5.27;;
57822;SDS011;43650;48.064;20.624;2023-08-30T01:00:58;10.80;;;5.10;;
57822;SDS011;43650;48.064;20.624;2023-08-30T01:01:59;11.85;;;5.40;;
57822;SDS011;43650;48.064;20.624;2023-08-30T01:03:01;10.05;;;5.30;;
57822;SDS011;43650;48.064;20.624;2023-08-30T01:04:01;8.85;;;5.47;;
57822;SDS011;43650;48.064;20.624;2023-08-30T01:05:02;7.53;;;4.80;;
57822;SDS011;43650;48.064;20.624;2023-08-30T01:07:04;6.90;;;4.95;;
57822;SDS011;43650;48.064;20.624;2023-08-30T01:08:04;7.83;;;5.40;;
57822;SDS011;43650;48.064;20.624;2023-08-30T01:09:05;6.37;;;5.00;;
57822;SDS011;43650;48.064;20.624;2023-08-30T01:10:06;8.93;;;5.68;;
57822;SDS011;43650;48.064;20.624;2023-08-30T01:12:20;12.37;;;5.10;;
57822;SDS011;43650;48.064;20.624;2023-08-30T01:13:22;13.23;;;5.55;;
57822;SDS011;43650;48.064;20.624;2023-08-30T01:14:31;6.85;;;4.65;;
57822;SDS011;43650;48.064;20.624;2023-08-30T01:15:38;8.73;;;5.25;;
57822;SDS011;43650;48.064;20.624;2023-08-30T01:16:39;7.57;;;5.10;;
57822;SDS011;43650;48.064;20.624;2023-08-30T01:17:40;10.83;;;5.77;;
57822;SDS011;43650;48.064;20.624;2023-08-30T01:18:43;7.53;;;5.22;;
57822;SDS011;43650;48.064;20.624;2023-08-30T01:20:54;10.23;;;5.20;;
57822;SDS011;43650;48.064;20.624;2023-08-30T01:22:03;7.87;;;5.05;;
57822;SDS011;43650;48.064;20.624;2023-08-30T01:23:13;8.68;;;5.43;;
57822;SDS011;43650;48.064;20.624;2023-08-30T01:24:25;8.00;;;5.25;;
57822;SDS011;43650;48.064;20.624;2023-08-30T01:27:11;9.60;;;5.72;;
57822;SDS011;43650;48.064;20.624;2023-08-30T01:28:12;9.10;;;5.62;;
57822;SDS011;43650;48.064;20.624;2023-08-30T01:29:14;7.80;;;5.00;;
57822;SDS011;43650;48.064;20.624;2023-08-30T01:30:16;8.13;;;4.95;;
57822;SDS011;43650;48.064;20.624;2023-08-30T01:31:17;7.15;;;5.12;;
57822;SDS011;43650;48.064;20.624;2023-08-30T01:32:19;7.85;;;5.32;;
57822;SDS011;43650;48.064;20.624;2023-08-30T01:33:23;8.18;;;5.00;;
57822;SDS011;43650;48.064;20.624;2023-08-30T01:34:24;10.88;;;5.57;;
57822;SDS011;43650;48.064;20.624;2023-08-30T01:35:25;9.43;;;4.95;;
57822;SDS011;43650;48.064;20.624;2023-08-30T01:36:30;8.35;;;5.22;;
57822;SDS011;43650;48.064;20.624;2023-08-30T01:37:31;8.50;;;5.10;;
57822;SDS011;43650;48.064;20.624;2023-08-30T01:38:32;6.20;;;4.78;;
57822;SDS011;43650;48.064;20.624;2023-08-30T01:40:38;9.70;;;4.87;;
57822;SDS011;43650;48.064;20.624;2023-08-30T01:41:40;24.12;;;5.43;;
57822;SDS011;43650;48.064;20.624;2023-08-30T01:42:41;7.25;;;4.80;;
57822;SDS011;43650;48.064;20.624;2023-08-30T01:43:44;8.07;;;5.00;;
57822;SDS011;43650;48.064;20.624;2023-08-30T01:45:46;9.65;;;4.72;;
57822;SDS011;43650;48.064;20.624;2023-08-30T01:46:46;7.77;;;4.87;;
57822;SDS011;43650;48.064;20.624;2023-08-30T01:47:47;6.50;;;4.57;;
57822;SDS011;43650;48.064;20.624;2023-08-30T01:48:48;8.23;;;4.65;;
57822;SDS011;43650;48.064;20.624;2023-08-30T01:49:49;8.88;;;5.05;;
57822;SDS011;43650;48.064;20.624;2023-08-30T01:50:50;8.23;;;5.10;;
57822;SDS011;43650;48.064;20.624;2023-08-30T01:51:51;7.40;;;4.80;;
57822;SDS011;43650;48.064;20.624;2023-08-30T01:52:52;7.93;;;5.25;;
57822;SDS011;43650;48.064;20.624;2023-08-30T01:53:53;8.45;;;4.62;;
57822;SDS011;43650;48.064;20.624;2023-08-30T01:55:54;8.73;;;5.12;;
57822;SDS011;43650;48.064;20.624;2023-08-30T01:56:55;7.97;;;4.93;;
57822;SDS011;43650;48.064;20.624;2023-08-30T01:57:55;8.80;;;5.03;;
57822;SDS011;43650;48.064;20.624;2023-08-30T01:58:55;11.10;;;5.13;;
57822;SDS011;43650;48.064;20.624;2023-08-30T01:59:56;6.20;;;4.07;;
57822;SDS011;43650;48.064;20.624;2023-08-30T02:00:56;9.33;;;5.77;;
57822;SDS011;43650;48.064;20.624;2023-08-30T02:01:57;9.65;;;4.85;;
57822;SDS011;43650;48.064;20.624;2023-08-30T02:02:57;7.97;;;4.33;;
57822;SDS011;43650;48.064;20.624;2023-08-30T02:03:58;9.52;;;5.45;;
57822;SDS011;43650;48.064;20.624;2023-08-30T02:05:01;9.73;;;5.30;;
57822;SDS011;43650;48.064;20.624;2023-08-30T02:06:08;5.80;;;4.47;;
57822;SDS011;43650;48.064;20.624;2023-08-30T02:07:16;8.40;;;5.05;;
57822;SDS011;43650;48.064;20.624;2023-08-30T02:08:20;7.75;;;4.72;;
57822;SDS011;43650;48.064;20.624;2023-08-30T02:09:29;7.45;;;4.93;;
57822;SDS011;43650;48.064;20.624;2023-08-30T02:10:59;8.05;;;4.45;;
57822;SDS011;43650;48.064;20.624;2023-08-30T02:12:04;7.65;;;4.65;;
57822;SDS011;43650;48.064;20.624;2023-08-30T02:13:06;9.70;;;5.68;;
57822;SDS011;43650;48.064;20.624;2023-08-30T02:14:07;11.57;;;5.40;;
57822;SDS011;43650;48.064;20.624;2023-08-30T02:15:08;8.95;;;4.93;;
57822;SDS011;43650;48.064;20.624;2023-08-30T02:17:10;7.32;;;4.82;;
57822;SDS011;43650;48.064;20.624;2023-08-30T02:18:12;9.57;;;5.12;;
57822;SDS011;43650;48.064;20.624;2023-08-30T02:19:13;8.57;;;4.90;;
57822;SDS011;43650;48.064;20.624;2023-08-30T02:20:16;7.18;;;4.78;;
57822;SDS011;43650;48.064;20.624;2023-08-30T02:21:18;10.70;;;5.93;;
57822;SDS011;43650;48.064;20.624;2023-08-30T02:22:18;6.72;;;4.37;;
57822;SDS011;43650;48.064;20.624;2023-08-30T02:23:19;7.03;;;4.65;;
57822;SDS011;43650;48.064;20.624;2023-08-30T02:24:23;6.80;;;4.45;;
57822;SDS011;43650;48.064;20.624;2023-08-30T02:25:24;7.53;;;3.85;;
57822;SDS011;43650;48.064;20.624;2023-08-30T02:26:24;12.00;;;5.17;;
57822;SDS011;43650;48.064;20.624;2023-08-30T02:27:24;8.17;;;4.93;;
57822;SDS011;43650;48.064;20.624;2023-08-30T02:28:25;10.37;;;4.40;;
57822;SDS011;43650;48.064;20.624;2023-08-30T02:29:25;6.50;;;4.67;;
57822;SDS011;43650;48.064;20.624;2023-08-30T02:30:26;6.87;;;4.87;;
57822;SDS011;43650;48.064;20.624;2023-08-30T02:31:26;7.43;;;5.43;;
57822;SDS011;43650;48.064;20.624;2023-08-30T02:32:26;6.67;;;4.90;;
57822;SDS011;43650;48.064;20.624;2023-08-30T02:33:27;7.07;;;4.83;;
57822;SDS011;43650;48.064;20.624;2023-08-30T02:34:27;11.20;;;5.87;;
57822;SDS011;43650;48.064;20.624;2023-08-30T02:35:28;11.13;;;5.90;;
57822;SDS011;43650;48.064;20.624;2023-08-30T02:36:28;12.83;;;5.87;;
57822;SDS011;43650;48.064;20.624;2023-08-30T02:37:28;6.87;;;4.83;;
57822;SDS011;43650;48.064;20.624;2023-08-30T02:38:29;13.10;;;5.73;;
57822;SDS011;43650;48.064;20.624;2023-08-30T02:39:29;12.07;;;5.60;;
57822;SDS011;43650;48.064;20.624;2023-08-30T02:40:30;10.80;;;5.53;;
57822;SDS011;43650;48.064;20.624;2023-08-30T02:41:31;9.13;;;5.30;;
57822;SDS011;43650;48.064;20.624;2023-08-30T02:42:32;9.57;;;5.10;;
57822;SDS011;43650;48.064;20.624;2023-08-30T02:43:33;9.70;;;5.68;;
57822;SDS011;43650;48.064;20.624;2023-08-30T02:44:33;15.07;;;5.33;;
57822;SDS011;43650;48.064;20.624;2023-08-30T02:45:34;8.67;;;6.13;;
57822;SDS011;43650;48.064;20.624;2023-08-30T02:46:34;6.75;;;4.90;;
57822;SDS011;43650;48.064;20.624;2023-08-30T02:47:37;12.48;;;5.55;;
57822;SDS011;43650;48.064;20.624;2023-08-30T02:48:38;10.30;;;5.70;;
57822;SDS011;43650;48.064;20.624;2023-08-30T02:49:38;9.33;;;5.50;;
57822;SDS011;43650;48.064;20.624;2023-08-30T02:50:39;9.83;;;5.90;;
57822;SDS011;43650;48.064;20.624;2023-08-30T02:51:39;10.57;;;5.32;;
57822;SDS011;43650;48.064;20.624;2023-08-30T02:52:39;8.83;;;5.83;;
57822;SDS011;43650;48.064;20.624;2023-08-30T02:53:40;9.67;;;6.20;;
57822;SDS011;43650;48.064;20.624;2023-08-30T02:54:40;8.57;;;5.83;;
57822;SDS011;43650;48.064;20.624;2023-08-30T02:55:41;9.90;;;5.73;;
57822;SDS011;43650;48.064;20.624;2023-08-30T02:56:41;9.30;;;6.53;;
57822;SDS011;43650;48.064;20.624;2023-08-30T02:57:45;11.93;;;7.20;;
57822;SDS011;43650;48.064;20.624;2023-08-30T02:58:46;9.63;;;6.37;;
57822;SDS011;43650;48.064;20.624;2023-08-30T02:59:46;11.43;;;6.67;;
57822;SDS011;43650;48.064;20.624;2023-08-30T03:00:47;11.47;;;7.00;;
57822;SDS011;43650;48.064;20.624;2023-08-30T03:01:47;12.17;;;6.77;;
57822;SDS011;43650;48.064;20.624;2023-08-30T03:02:47;9.03;;;5.60;;
57822;SDS011;43650;48.064;20.624;2023-08-30T03:03:48;13.55;;;6.35;;
57822;SDS011;43650;48.064;20.624;2023-08-30T03:04:49;10.37;;;6.63;;
57822;SDS011;43650;48.064;20.624;2023-08-30T03:05:49;8.17;;;5.60;;
57822;SDS011;43650;48.064;20.624;2023-08-30T03:06:49;10.83;;;6.73;;
57822;SDS011;43650;48.064;20.624;2023-08-30T03:07:50;12.93;;;6.63;;
57822;SDS011;43650;48.064;20.624;2023-08-30T03:08:53;10.20;;;6.53;;
57822;SDS011;43650;48.064;20.624;2023-08-30T03:09:53;10.13;;;6.85;;
57822;SDS011;43650;48.064;20.624;2023-08-30T03:10:54;12.10;;;6.77;;
57822;SDS011;43650;48.064;20.624;2023-08-30T03:11:54;9.53;;;6.83;;
57822;SDS011;43650;48.064;20.624;2023-08-30T03:12:55;12.27;;;7.30;;
57822;SDS011;43650;48.064;20.624;2023-08-30T03:13:55;15.03;;;10.07;;
57822;SDS011;43650;48.064;20.624;2023-08-30T03:14:56;14.67;;;7.83;;
57822;SDS011;43650;48.064;20.624;2023-08-30T03:15:56;11.90;;;7.43;;
57822;SDS011;43650;48.064;20.624;2023-08-30T03:16:56;11.33;;;7.30;;
57822;SDS011;43650;48.064;20.624;2023-08-30T03:17:57;14.60;;;8.03;;
57822;SDS011;43650;48.064;20.624;2023-08-30T03:18:57;12.40;;;7.40;;
57822;SDS011;43650;48.064;20.624;2023-08-30T03:19:58;12.68;;;7.97;;
57822;SDS011;43650;48.064;20.624;2023-08-30T03:21:01;11.98;;;7.55;;
57822;SDS011;43650;48.064;20.624;2023-08-30T03:22:02;11.68;;;7.53;;
57822;SDS011;43650;48.064;20.624;2023-08-30T03:23:03;12.25;;;7.32;;
57822;SDS011;43650;48.064;20.624;2023-08-30T03:24:03;12.67;;;7.63;;
57822;SDS011;43650;48.064;20.624;2023-08-30T03:25:04;14.07;;;7.37;;
57822;SDS011;43650;48.064;20.624;2023-08-30T03:26:09;11.02;;;7.07;;
57822;SDS011;43650;48.064;20.624;2023-08-30T03:27:10;12.23;;;6.85;;
57822;SDS011;43650;48.064;20.624;2023-08-30T03:28:11;10.87;;;7.53;;
57822;SDS011;43650;48.064;20.624;2023-08-30T03:29:11;10.13;;;6.77;;
57822;SDS011;43650;48.064;20.624;2023-08-30T03:30:12;15.77;;;7.63;;
57822;SDS011;43650;48.064;20.624;2023-08-30T03:31:16;12.10;;;7.18;;
57822;SDS011;43650;48.064;20.624;2023-08-30T03:32:18;12.85;;;7.90;;
57822;SDS011;43650;48.064;20.624;2023-08-30T03:33:18;16.20;;;7.47;;
57822;SDS011;43650;48.064;20.624;2023-08-30T03:34:19;10.37;;;6.93;;
57822;SDS011;43650;48.064;20.624;2023-08-30T03:35:19;11.33;;;7.23;;
57822;SDS011;43650;48.064;20.624;2023-08-30T03:36:21;10.65;;;7.70;;
57822;SDS011;43650;48.064;20.624;2023-08-30T03:37:22;9.77;;;6.87;;
57822;SDS011;43650;48.064;20.624;2023-08-30T03:38:22;9.30;;;6.90;;
57822;SDS011;43650;48.064;20.624;2023-08-30T03:39:23;8.85;;;6.70;;
57822;SDS011;43650;48.064;20.624;2023-08-30T03:40:24;11.35;;;6.95;;
57822;SDS011;43650;48.064;20.624;2023-08-30T03:41:24;10.30;;;6.87;;
57822;SDS011;43650;48.064;20.624;2023-08-30T03:42:25;14.57;;;7.90;;
57822;SDS011;43650;48.064;20.624;2023-08-30T03:43:25;9.60;;;7.13;;
57822;SDS011;43650;48.064;20.624;2023-08-30T03:44:26;12.10;;;6.63;;
57822;SDS011;43650;48.064;20.624;2023-08-30T03:45:26;11.97;;;7.23;;
57822;SDS011;43650;48.064;20.624;2023-08-30T03:46:26;17.33;;;9.33;;
57822;SDS011;43650;48.064;20.624;2023-08-30T03:47:27;10.63;;;6.73;;
57822;SDS011;43650;48.064;20.624;2023-08-30T03:48:27;14.43;;;7.40;;
57822;SDS011;43650;48.064;20.624;2023-08-30T03:49:28;14.97;;;7.47;;
57822;SDS011;43650;48.064;20.624;2023-08-30T03:51:29;13.68;;;8.68;;
57822;SDS011;43650;48.064;20.624;2023-08-30T03:52:30;10.53;;;7.30;;
57822;SDS011;43650;48.064;20.624;2023-08-30T03:53:30;11.73;;;7.90;;
57822;SDS011;43650;48.064;20.624;2023-08-30T03:54:31;14.47;;;7.97;;
57822;SDS011;43650;48.064;20.624;2023-08-30T03:55:32;13.10;;;8.98;;
57822;SDS011;43650;48.064;20.624;2023-08-30T03:56:34;16.92;;;9.20;;
57822;SDS011;43650;48.064;20.624;2023-08-30T03:57:34;18.20;;;8.73;;
57822;SDS011;43650;48.064;20.624;2023-08-30T03:58:34;21.90;;;10.23;;
57822;SDS011;43650;48.064;20.624;2023-08-30T03:59:35;15.80;;;10.37;;
57822;SDS011;43650;48.064;20.624;2023-08-30T04:00:36;13.33;;;9.83;;
57822;SDS011;43650;48.064;20.624;2023-08-30T04:01:37;16.35;;;10.40;;
57822;SDS011;43650;48.064;20.624;2023-08-30T04:02:37;19.13;;;11.23;;
57822;SDS011;43650;48.064;20.624;2023-08-30T04:03:38;21.57;;;11.30;;
57822;SDS011;43650;48.064;20.624;2023-08-30T04:04:38;16.83;;;10.53;;
57822;SDS011;43650;48.064;20.624;2023-08-30T04:05:39;15.07;;;9.97;;
57822;SDS011;43650;48.064;20.624;2023-08-30T04:06:39;22.70;;;11.47;;
57822;SDS011;43650;48.064;20.624;2023-08-30T04:07:40;21.17;;;11.23;;
57822;SDS011;43650;48.064;20.624;2023-08-30T04:08:40;16.57;;;10.07;;
57822;SDS011;43650;48.064;20.624;2023-08-30T04:09:40;20.60;;;10.97;;
57822;SDS011;43650;48.064;20.624;2023-08-30T04:10:41;18.00;;;10.90;;
57822;SDS011;43650;48.064;20.624;2023-08-30T04:11:42;17.42;;;10.98;;
57822;SDS011;43650;48.064;20.624;2023-08-30T04:13:43;17.35;;;10.63;;
57822;SDS011;43650;48.064;20.624;2023-08-30T04:14:44;18.83;;;11.23;;
57822;SDS011;43650;48.064;20.624;2023-08-30T04:15:44;16.70;;;10.57;;
57822;SDS011;43650;48.064;20.624;2023-08-30T04:16:45;20.47;;;11.50;;
57822;SDS011;43650;48.064;20.624;2023-08-30T04:17:45;17.50;;;10.97;;
57822;SDS011;43650;48.064;20.624;2023-08-30T04:18:46;16.85;;;10.73;;
57822;SDS011;43650;48.064;20.624;2023-08-30T04:19:46;19.77;;;11.27;;
57822;SDS011;43650;48.064;20.624;2023-08-30T04:20:47;21.13;;;13.97;;
57822;SDS011;43650;48.064;20.624;2023-08-30T04:21:47;18.65;;;11.27;;
57822;SDS011;43650;48.064;20.624;2023-08-30T04:22:48;19.70;;;12.55;;
57822;SDS011;43650;48.064;20.624;2023-08-30T04:23:48;21.27;;;11.37;;
57822;SDS011;43650;48.064;20.624;2023-08-30T04:24:49;18.97;;;11.30;;
57822;SDS011;43650;48.064;20.624;2023-08-30T04:25:49;18.70;;;12.05;;
57822;SDS011;43650;48.064;20.624;2023-08-30T04:26:50;26.60;;;12.77;;
57822;SDS011;43650;48.064;20.624;2023-08-30T04:27:53;21.27;;;12.40;;
57822;SDS011;43650;48.064;20.624;2023-08-30T04:28:53;18.63;;;12.23;;
57822;SDS011;43650;48.064;20.624;2023-08-30T04:29:53;22.27;;;12.17;;
57822;SDS011;43650;48.064;20.624;2023-08-30T04:30:54;16.43;;;10.67;;
57822;SDS011;43650;48.064;20.624;2023-08-30T04:31:55;19.65;;;11.65;;
57822;SDS011;43650;48.064;20.624;2023-08-30T04:32:56;18.87;;;11.37;;
57822;SDS011;43650;48.064;20.624;2023-08-30T04:33:56;18.67;;;12.27;;
57822;SDS011;43650;48.064;20.624;2023-08-30T04:34:57;17.80;;;12.23;;
57822;SDS011;43650;48.064;20.624;2023-08-30T04:35:57;18.47;;;11.67;;
57822;SDS011;43650;48.064;20.624;2023-08-30T04:37:00;19.65;;;11.02;;
57822;SDS011;43650;48.064;20.624;2023-08-30T04:38:01;19.60;;;11.13;;
57822;SDS011;43650;48.064;20.624;2023-08-30T04:39:03;18.85;;;11.43;;
57822;SDS011;43650;48.064;20.624;2023-08-30T04:40:04;18.80;;;11.45;;
57822;SDS011;43650;48.064;20.624;2023-08-30T04:41:06;23.48;;;12.73;;
57822;SDS011;43650;48.064;20.624;2023-08-30T04:42:06;23.57;;;11.70;;
57822;SDS011;43650;48.064;20.624;2023-08-30T04:43:07;21.90;;;13.73;;
57822;SDS011;43650;48.064;20.624;2023-08-30T04:44:07;23.57;;;12.30;;
57822;SDS011;43650;48.064;20.624;2023-08-30T04:45:08;18.52;;;12.57;;
57822;SDS011;43650;48.064;20.624;2023-08-30T04:46:09;25.15;;;13.32;;
57822;SDS011;43650;48.064;20.624;2023-08-30T04:47:10;24.20;;;13.53;;
57822;SDS011;43650;48.064;20.624;2023-08-30T04:48:10;21.23;;;12.73;;
57822;SDS011;43650;48.064;20.624;2023-08-30T04:49:11;22.37;;;13.73;;
57822;SDS011;43650;48.064;20.624;2023-08-30T04:50:11;21.23;;;11.90;;
57822;SDS011;43650;48.064;20.624;2023-08-30T04:51:11;23.43;;;13.07;;
57822;SDS011;43650;48.064;20.624;2023-08-30T04:52:12;20.92;;;11.98;;
57822;SDS011;43650;48.064;20.624;2023-08-30T04:53:12;17.53;;;11.43;;
57822;SDS011;43650;48.064;20.624;2023-08-30T04:54:13;21.27;;;12.43;;
57822;SDS011;43650;48.064;20.624;2023-08-30T04:55:14;24.52;;;14.02;;
57822;SDS011;43650;48.064;20.624;2023-08-30T04:56:14;21.27;;;13.00;;
57822;SDS011;43650;48.064;20.624;2023-08-30T04:57:17;29.37;;;14.23;;
57822;SDS011;43650;48.064;20.624;2023-08-30T04:58:18;19.83;;;12.35;;
57822;SDS011;43650;48.064;20.624;2023-08-30T04:59:18;21.20;;;13.13;;
57822;SDS011;43650;48.064;20.624;2023-08-30T05:00:19;26.60;;;12.30;;
57822;SDS011;43650;48.064;20.624;2023-08-30T05:01:19;25.12;;;13.02;;
57822;SDS011;43650;48.064;20.624;2023-08-30T05:02:20;26.43;;;12.67;;
57822;SDS011;43650;48.064;20.624;2023-08-30T05:03:20;23.47;;;12.93;;
57822;SDS011;43650;48.064;20.624;2023-08-30T05:04:21;24.57;;;13.73;;
57822;SDS011;43650;48.064;20.624;2023-08-30T05:05:21;22.07;;;13.83;;
57822;SDS011;43650;48.064;20.624;2023-08-30T05:06:21;24.60;;;12.23;;
57822;SDS011;43650;48.064;20.624;2023-08-30T05:07:22;20.00;;;12.40;;
57822;SDS011;43650;48.064;20.624;2023-08-30T05:08:22;34.70;;;12.80;;
57822;SDS011;43650;48.064;20.624;2023-08-30T05:09:23;19.77;;;11.93;;
57822;SDS011;43650;48.064;20.624;2023-08-30T05:10:24;24.63;;;11.98;;
57822;SDS011;43650;48.064;20.624;2023-08-30T05:11:25;19.67;;;10.07;;
57822;SDS011;43650;48.064;20.624;2023-08-30T05:12:26;25.93;;;10.73;;
57822;SDS011;43650;48.064;20.624;2023-08-30T05:13:26;23.37;;;13.10;;
57822;SDS011;43650;48.064;20.624;2023-08-30T05:14:26;21.77;;;11.73;;
57822;SDS011;43650;48.064;20.624;2023-08-30T05:15:27;20.20;;;11.00;;
57822;SDS011;43650;48.064;20.624;2023-08-30T05:16:27;20.27;;;12.73;;
57822;SDS011;43650;48.064;20.624;2023-08-30T05:17:27;19.37;;;12.47;;
57822;SDS011;43650;48.064;20.624;2023-08-30T05:18:28;22.50;;;12.50;;
57822;SDS011;43650;48.064;20.624;2023-08-30T05:19:29;19.40;;;12.10;;
57822;SDS011;43650;48.064;20.624;2023-08-30T05:20:29;27.03;;;12.97;;
57822;SDS011;43650;48.064;20.624;2023-08-30T05:21:30;22.43;;;11.37;;
57822;SDS011;43650;48.064;20.624;2023-08-30T05:22:30;19.57;;;11.80;;
57822;SDS011;43650;48.064;20.624;2023-08-30T05:23:31;21.60;;;12.23;;
57822;SDS011;43650;48.064;20.624;2023-08-30T05:24:31;21.52;;;11.07;;
57822;SDS011;43650;48.064;20.624;2023-08-30T05:25:32;19.43;;;11.73;;
57822;SDS011;43650;48.064;20.624;2023-08-30T05:26:32;19.23;;;10.57;;
57822;SDS011;43650;48.064;20.624;2023-08-30T05:27:33;19.60;;;11.87;;
57822;SDS011;43650;48.064;20.624;2023-08-30T05:28:34;18.25;;;11.80;;
57822;SDS011;43650;48.064;20.624;2023-08-30T05:29:34;20.77;;;11.93;;
57822;SDS011;43650;48.064;20.624;2023-08-30T05:30:35;17.70;;;10.87;;
57822;SDS011;43650;48.064;20.624;2023-08-30T05:31:35;23.90;;;12.20;;
57822;SDS011;43650;48.064;20.624;2023-08-30T05:32:35;29.73;;;13.70;;
57822;SDS011;43650;48.064;20.624;2023-08-30T05:33:36;25.07;;;12.30;;
57822;SDS011;43650;48.064;20.624;2023-08-30T05:34:36;32.47;;;13.00;;
57822;SDS011;43650;48.064;20.624;2023-08-30T05:35:37;32.33;;;13.07;;
57822;SDS011;43650;48.064;20.624;2023-08-30T05:36:37;27.37;;;12.83;;
57822;SDS011;43650;48.064;20.624;2023-08-30T05:37:37;27.07;;;12.50;;
57822;SDS011;43650;48.064;20.624;2023-08-30T05:38:38;20.93;;;11.80;;
57822;SDS011;43650;48.064;20.624;2023-08-30T05:39:38;23.23;;;12.30;;
57822;SDS011;43650;48.064;20.624;2023-08-30T05:40:39;19.42;;;11.57;;
57822;SDS011;43650;48.064;20.624;2023-08-30T05:41:42;27.98;;;11.70;;
57822;SDS011;43650;48.064;20.624;2023-08-30T05:42:43;20.47;;;12.03;;
57822;SDS011;43650;48.064;20.624;2023-08-30T05:43:43;22.27;;;12.40;;
57822;SDS011;43650;48.064;20.624;2023-08-30T05:44:44;20.60;;;12.77;;
57822;SDS011;43650;48.064;20.624;2023-08-30T05:45:44;20.50;;;12.67;;
57822;SDS011;43650;48.064;20.624;2023-08-30T05:46:45;22.13;;;11.80;;
57822;SDS011;43650;48.064;20.624;2023-08-30T05:47:45;22.27;;;11.63;;
57822;SDS011;43650;48.064;20.624;2023-08-30T05:48:45;23.57;;;12.13;;
57822;SDS011;43650;48.064;20.624;2023-08-30T05:49:46;21.90;;;12.43;;
57822;SDS011;43650;48.064;20.624;2023-08-30T05:50:46;22.30;;;11.82;;
57822;SDS011;43650;48.064;20.624;2023-08-30T05:51:47;22.73;;;11.50;;
57822;SDS011;43650;48.064;20.624;2023-08-30T05:52:47;19.93;;;11.30;;
57822;SDS011;43650;48.064;20.624;2023-08-30T05:53:48;24.43;;;12.13;;
57822;SDS011;43650;48.064;20.624;2023-08-30T05:54:48;23.70;;;11.67;;
57822;SDS011;43650;48.064;20.624;2023-08-30T05:55:48;22.00;;;11.67;;
57822;SDS011;43650;48.064;20.624;2023-08-30T05:56:49;20.83;;;11.37;;
57822;SDS011;43650;48.064;20.624;2023-08-30T05:57:49;25.80;;;11.60;;
57822;SDS011;43650;48.064;20.624;2023-08-30T05:58:50;23.23;;;11.47;;
57822;SDS011;43650;48.064;20.624;2023-08-30T05:59:50;19.63;;;12.93;;
57822;SDS011;43650;48.064;20.624;2023-08-30T06:00:51;24.45;;;12.63;;
57822;SDS011;43650;48.064;20.624;2023-08-30T06:01:51;21.97;;;11.80;;
57822;SDS011;43650;48.064;20.624;2023-08-30T06:02:52;18.05;;;11.07;;
57822;SDS011;43650;48.064;20.624;2023-08-30T06:03:52;21.87;;;11.83;;
57822;SDS011;43650;48.064;20.624;2023-08-30T06:04:54;20.90;;;11.90;;
57822;SDS011;43650;48.064;20.624;2023-08-30T06:05:54;23.73;;;12.77;;
57822;SDS011;43650;48.064;20.624;2023-08-30T06:06:55;20.40;;;12.23;;
57822;SDS011;43650;48.064;20.624;2023-08-30T06:07:55;22.27;;;12.67;;
57822;SDS011;43650;48.064;20.624;2023-08-30T06:08:57;27.85;;;13.55;;
57822;SDS011;43650;48.064;20.624;2023-08-30T06:09:58;21.02;;;11.07;;